Time;durP1;ratioP1;P1;durP2;ratioP2;P2;SDS_P1;SDS_P2;PMS_P1;PMS_P2;Temp;Humidity;BMP_temperature;BMP_pressure;BME280_temperature;BME280_humidity;BME280_pressure;Samples;Min_cycle;Max_cycle;Signal;HPM_P1;HPM_P2
2022/05/14 00:02:11;;;;;;;1.73;1.38;;;16.20;45.30;;;16.63;39.42;98079.75;5065523;28;20251;-39
2022/05/14 00:04:39;;;;;;;4.15;1.60;;;16.20;45.50;;;16.62;39.90;98080.78;5067408;28;20047;-40
2022/05/14 00:07:07;;;;;;;3.60;1.38;;;16.10;45.80;;;16.58;39.56;98080.34;5066448;28;20056;-40
2022/05/14 00:09:34;;;;;;;2.40;1.55;;;16.10;45.70;;;16.54;39.74;98081.75;5066854;28;20051;-41
2022/05/14 00:14:49;;;;;;;5.80;3.28;;;16.00;46.20;;;16.46;39.68;98076.44;5066754;28;20056;-40
2022/05/14 00:17:23;;;;;;;6.15;3.63;;;15.90;46.00;;;16.43;39.70;98079.53;5065888;28;20070;-39
2022/05/14 00:19:51;;;;;;;6.45;2.80;;;15.90;46.30;;;16.37;39.76;98082.97;5066575;28;20055;-40
2022/05/14 00:22:19;;;;;;;3.65;2.80;;;15.80;46.10;;;16.34;39.75;98079.66;5066157;28;20239;-40
2022/05/14 00:24:46;;;;;;;3.05;1.88;;;15.80;46.00;;;16.31;40.06;98081.88;5065047;28;20053;-41
2022/05/14 00:27:14;;;;;;;3.08;1.75;;;15.80;46.20;;;16.24;40.11;98080.94;5064640;28;20438;-41
2022/05/14 00:29:42;;;;;;;6.55;1.77;;;15.70;46.90;;;16.19;40.28;98080.66;5066575;28;20052;-40
2022/05/14 00:32:10;;;;;;;3.95;1.30;;;15.60;46.90;;;16.13;40.58;98071.50;5064656;28;20044;-40
2022/05/14 00:34:38;;;;;;;2.38;1.30;;;15.60;47.00;;;16.10;40.48;98070.00;5066786;28;20229;-40
2022/05/14 00:37:06;;;;;;;4.70;1.60;;;15.60;47.10;;;16.06;40.74;98070.59;5065683;28;20060;-40
2022/05/14 00:39:34;;;;;;;3.65;1.40;;;15.50;47.80;;;15.96;40.83;98073.56;5066399;28;20040;-40
2022/05/14 00:42:02;;;;;;;3.25;2.03;;;15.50;47.80;;;15.98;40.93;98073.38;5065282;28;20501;-40
2022/05/14 00:44:30;;;;;;;3.85;1.52;;;15.50;47.80;;;15.93;40.93;98073.91;5064064;28;20071;-40
2022/05/14 00:47:03;;;;;;;3.05;1.42;;;15.40;47.70;;;15.89;41.18;98070.75;5067722;28;20057;-40
2022/05/14 00:49:33;;;;;;;4.30;1.50;;;15.40;47.90;;;15.85;41.15;98072.16;5047683;28;20056;-40
2022/05/14 00:52:03;;;;;;;3.25;1.50;;;15.30;48.00;;;15.87;40.97;98074.66;5064076;28;20064;-40
2022/05/14 00:54:45;;;;;;;2.15;1.35;;;15.40;47.90;;;15.79;41.37;98066.69;5047661;28;20339;-40
2022/05/14 00:57:18;;;;;;;1.58;1.35;;;15.30;48.50;;;15.77;41.49;98072.25;5048583;28;20053;-40
2022/05/14 00:59:45;;;;;;;2.15;1.63;;;15.30;48.50;;;15.77;41.06;98069.56;5065186;28;20049;-39
2022/05/14 01:02:14;;;;;;;2.53;1.60;;;15.30;48.30;;;15.78;41.39;98063.19;5064626;28;20052;-40
2022/05/14 01:04:43;;;;;;;2.70;1.65;;;15.30;48.10;;;15.78;41.31;98065.88;5063835;28;20389;-39
2022/05/14 01:07:20;;;;;;;3.15;1.52;;;15.30;48.10;;;15.77;41.77;98068.72;5047339;28;20243;-40
2022/05/14 01:09:57;;;;;;;3.10;1.20;;;15.30;48.50;;;15.69;41.63;98062.38;5047400;28;20131;-40
2022/05/14 01:12:27;;;;;;;1.67;1.35;;;15.20;48.50;;;15.69;41.80;98065.06;5064241;28;20257;-40
2022/05/14 01:15:05;;;;;;;2.55;1.30;;;15.20;48.30;;;15.72;41.60;98061.19;5048458;28;20067;-40
2022/05/14 01:17:33;;;;;;;1.65;1.20;;;15.20;48.30;;;15.71;41.68;98062.22;5063679;28;20052;-39
2022/05/14 01:20:03;;;;;;;3.67;1.45;;;15.20;48.40;;;15.72;41.45;98067.41;5063503;28;20400;-40
2022/05/14 01:23:07;;;;;;;2.80;1.63;;;15.30;48.30;;;15.62;41.80;98060.63;5047658;28;20058;-40
2022/05/14 01:28:51;;;;;;;3.28;1.60;;;15.10;49.10;;;15.54;42.04;98062.34;5067684;28;20050;-39
2022/05/14 01:31:19;;;;;;;3.63;1.33;;;15.00;49.00;;;15.54;41.96;98061.53;5073164;28;20342;-39
2022/05/14 01:33:47;;;;;;;2.35;1.67;;;15.00;49.00;;;15.53;41.98;98065.25;5087116;28;20051;-39
2022/05/14 01:36:15;;;;;;;1.83;1.10;;;15.00;49.00;;;15.52;42.04;98066.25;5071756;28;20226;-39
2022/05/14 01:38:43;;;;;;;2.72;1.40;;;15.00;49.10;;;15.54;42.23;98050.81;5086744;28;20044;-40
2022/05/14 01:41:11;;;;;;;1.17;1.08;;;15.10;49.10;;;15.54;42.27;98065.03;5086517;28;20130;-40
2022/05/14 01:43:39;;;;;;;3.17;1.42;;;15.10;49.00;;;15.56;42.14;98062.19;5088197;28;20050;-40
2022/05/14 01:46:08;;;;;;;2.83;1.40;;;15.10;49.10;;;15.56;42.15;98059.50;5086645;28;20060;-40
2022/05/14 01:48:36;;;;;;;2.08;1.30;;;15.00;49.20;;;15.51;42.19;98057.38;5071308;28;20050;-40
2022/05/14 01:51:04;;;;;;;2.40;1.40;;;15.00;49.40;;;15.50;42.32;98062.91;5087255;28;20052;-40
2022/05/14 01:53:33;;;;;;;2.00;1.30;;;14.90;49.50;;;15.49;42.39;98056.72;5089917;28;20473;-40
2022/05/14 01:56:01;;;;;;;2.78;1.50;;;14.90;49.50;;;15.45;42.42;98060.78;5088372;28;20234;-41
2022/05/14 01:58:37;;;;;;;2.35;1.52;;;14.90;49.70;;;15.43;42.45;98053.91;5070596;28;20060;-41
2022/05/14 02:01:21;;;;;;;1.80;1.70;;;14.90;49.90;;;15.39;42.61;98057.97;5086619;28;20070;-41
2022/05/14 02:04:08;;;;;;;6.78;1.73;;;14.90;50.20;;;15.37;42.56;98055.47;5088778;28;20345;-41
2022/05/14 02:06:38;;;;;;;5.40;1.60;;;14.90;50.40;;;15.35;42.65;98057.50;5103425;28;20074;-40
2022/05/14 02:09:09;;;;;;;2.50;1.50;;;14.80;50.00;;;15.34;42.91;98055.84;5086913;28;20078;-40
2022/05/14 02:11:41;;;;;;;2.88;1.35;;;14.80;50.30;;;15.32;42.79;98057.91;5086123;28;20056;-41
2022/05/14 02:14:15;;;;;;;2.85;1.27;;;14.80;50.30;;;15.31;42.78;98053.53;5086310;28;20060;-42
2022/05/14 02:16:43;;;;;;;2.72;1.50;;;14.80;50.20;;;15.28;42.95;98053.91;5088138;28;20325;-41
2022/05/14 02:19:11;;;;;;;1.40;1.30;;;14.80;50.20;;;15.26;43.01;98053.25;5087859;28;20247;-41
2022/05/14 02:21:39;;;;;;;1.67;1.48;;;14.70;50.40;;;15.22;43.10;98057.28;5086141;28;20056;-41
2022/05/14 02:24:10;;;;;;;2.75;1.58;;;14.70;50.60;;;15.15;43.33;98057.19;5087483;28;20054;-41
2022/05/14 02:26:37;;;;;;;3.33;1.70;;;14.60;50.80;;;15.12;43.43;98054.84;5087031;28;20055;-41
2022/05/14 02:29:05;;;;;;;1.73;1.30;;;14.60;51.00;;;15.12;43.49;98050.34;5086635;28;20365;-41
2022/05/14 02:31:33;;;;;;;3.70;1.40;;;14.60;51.10;;;15.12;43.51;98054.84;5087453;28;20048;-41
2022/05/14 02:34:02;;;;;;;1.42;1.33;;;14.60;51.00;;;15.13;43.37;98060.03;5087839;28;20052;-41
2022/05/14 02:36:30;;;;;;;3.53;1.38;;;14.60;50.90;;;15.13;43.34;98056.53;5086146;28;20063;-41
2022/05/14 02:38:58;;;;;;;2.22;1.58;;;14.60;50.90;;;15.10;43.50;98056.88;5087554;28;20060;-41
2022/05/14 02:41:26;;;;;;;3.70;1.50;;;14.60;51.10;;;15.08;43.53;98058.91;5087883;28;20066;-41
2022/05/14 02:43:54;;;;;;;5.00;1.30;;;14.60;51.00;;;15.10;43.47;98057.75;5087744;28;20523;-41
2022/05/14 02:46:23;;;;;;;5.70;2.35;;;14.60;50.90;;;15.08;43.49;98058.91;5084773;28;20058;-41
2022/05/14 02:48:51;;;;;;;1.98;1.73;;;14.70;51.00;;;15.12;43.39;98057.53;5085897;28;20269;-41
2022/05/14 02:51:19;;;;;;;3.63;1.45;;;14.70;50.90;;;15.10;43.45;98055.06;5088518;28;20052;-41
2022/05/14 02:53:48;;;;;;;4.68;1.35;;;14.60;51.30;;;15.10;43.58;98056.88;5087180;28;20050;-41
2022/05/14 02:56:16;;;;;;;4.18;1.50;;;14.60;51.20;;;15.10;43.60;98054.19;5085329;28;20070;-41
2022/05/14 03:01:31;;;;;;;2.97;1.65;;;14.60;50.90;;;15.07;43.55;98057.25;5088132;28;20052;-41
2022/05/14 03:04:04;;;;;;;2.60;1.50;;;14.60;51.00;;;15.04;43.89;98061.13;5087401;28;20054;-41
2022/05/14 03:06:32;;;;;;;3.07;1.50;;;14.60;51.30;;;15.04;43.85;98060.28;5069937;28;20457;-41
2022/05/14 03:09:00;;;;;;;3.30;1.65;;;14.60;51.30;;;15.04;43.79;98058.44;5086621;28;20281;-41
2022/05/14 03:11:28;;;;;;;2.88;1.83;;;14.60;51.40;;;15.01;44.01;98052.63;5086796;28;20066;-41
2022/05/14 03:13:56;;;;;;;3.03;1.50;;;14.50;51.70;;;14.99;43.90;98054.66;5087095;28;20047;-41
2022/05/14 03:16:24;;;;;;;4.97;1.80;;;14.50;51.60;;;14.94;43.93;98053.31;5088654;28;20059;-41
2022/05/14 03:18:52;;;;;;;3.58;1.40;;;14.40;51.70;;;14.88;44.28;98059.41;5086538;28;20051;-41
2022/05/14 03:21:20;;;;;;;3.40;1.65;;;14.40;52.20;;;14.88;44.03;98061.25;5085471;28;20055;-41
2022/05/14 03:23:49;;;;;;;2.15;1.35;;;14.30;52.00;;;14.87;44.37;98059.56;5086222;28;20058;-41
2022/05/14 03:26:17;;;;;;;1.77;1.30;;;14.40;52.10;;;14.86;44.31;98058.75;5085418;28;20056;-41
2022/05/14 03:28:46;;;;;;;2.58;1.60;;;14.40;52.80;;;14.87;44.29;98055.06;5085061;28;20261;-41
2022/05/14 03:31:14;;;;;;;4.53;1.40;;;14.40;52.00;;;14.83;44.35;98059.13;5086618;28;20052;-41
2022/05/14 03:33:43;;;;;;;1.83;1.38;;;14.40;52.30;;;14.81;44.62;98061.13;5082598;28;20219;-41
2022/05/14 03:36:11;;;;;;;2.90;1.60;;;14.30;52.40;;;14.76;44.58;98064.34;5086506;28;20052;-41
2022/05/14 03:38:40;;;;;;;2.75;1.63;;;14.30;52.70;;;14.74;44.64;98065.53;5085336;28;20048;-41
2022/05/14 03:41:09;;;;;;;8.55;1.98;;;14.20;52.60;;;14.69;44.85;98068.72;5084536;28;20064;-41
2022/05/14 03:43:37;;;;;;;1.70;1.20;;;14.10;53.00;;;14.65;44.92;98059.38;5085862;28;20346;-41
2022/05/14 03:46:05;;;;;;;3.25;1.33;;;14.10;53.10;;;14.64;44.88;98060.41;5086789;28;20048;-41
2022/05/14 03:48:33;;;;;;;2.53;1.75;;;14.10;53.30;;;14.61;45.11;98067.97;5085900;28;20052;-41
2022/05/14 03:51:01;;;;;;;1.90;1.33;;;14.00;53.60;;;14.56;45.28;98061.28;5084881;28;20048;-41
2022/05/14 03:53:30;;;;;;;4.35;1.65;;;13.90;54.00;;;14.52;45.75;98061.75;5086658;28;20054;-41
2022/05/14 03:55:58;;;;;;;3.20;1.40;;;13.80;54.30;;;14.44;45.55;98065.31;5087490;28;20364;-42
2022/05/14 03:58:26;;;;;;;3.00;1.45;;;13.80;54.50;;;14.38;45.83;98060.66;5086809;28;20542;-40
2022/05/14 04:00:54;;;;;;;3.67;1.88;;;13.70;55.00;;;14.34;45.57;98056.69;5087465;28;20048;-40
2022/05/14 04:03:23;;;;;;;1.70;1.40;;;13.70;55.10;;;14.30;45.95;98061.53;5085001;28;20391;-40
2022/05/14 04:05:51;;;;;;;2.40;1.58;;;13.70;55.20;;;14.28;46.11;98062.75;5085092;28;20066;-40
2022/05/14 04:08:19;;;;;;;2.58;1.67;;;13.70;55.30;;;14.25;46.22;98061.25;5101374;28;20052;-39
2022/05/14 04:10:47;;;;;;;1.60;1.50;;;13.60;55.30;;;14.21;46.10;98057.25;5087079;28;20052;-40
2022/05/14 04:13:14;;;;;;;2.85;1.40;;;13.60;55.60;;;14.19;46.29;98053.94;5086361;28;20052;-40
2022/05/14 04:15:42;;;;;;;2.78;1.52;;;13.60;55.60;;;14.13;46.26;98052.78;5084984;28;20054;-41
2022/05/14 04:18:10;;;;;;;2.20;1.60;;;13.50;55.70;;;14.12;46.59;98055.63;5084846;28;20058;-40
2022/05/14 04:20:39;;;;;;;2.53;1.67;;;13.60;55.80;;;14.14;46.53;98056.28;5084207;28;20369;-40
2022/05/14 04:23:07;;;;;;;2.42;1.50;;;13.60;55.60;;;14.14;46.45;98054.44;5083802;28;20052;-41
2022/05/14 04:25:35;;;;;;;2.25;1.60;;;13.60;55.50;;;14.15;46.64;98053.44;5086284;28;20062;-41
2022/05/14 04:28:04;;;;;;;3.53;1.70;;;13.60;55.90;;;14.14;46.74;98053.59;5084416;28;20067;-41
2022/05/14 04:30:32;;;;;;;3.15;2.17;;;13.60;56.00;;;14.13;46.79;98051.91;5086979;28;20052;-41
2022/05/14 04:33:00;;;;;;;2.45;1.90;;;13.60;55.90;;;14.12;47.26;98059.13;5084922;28;20055;-40
2022/05/14 04:35:28;;;;;;;2.50;1.63;;;13.60;56.40;;;14.14;46.94;98064.31;5086910;28;20044;-40
2022/05/14 04:37:56;;;;;;;3.08;1.60;;;13.60;56.10;;;14.14;47.12;98058.97;5086190;28;20040;-40
2022/05/14 04:40:24;;;;;;;3.33;1.80;;;13.60;56.30;;;14.18;47.15;98057.59;5086454;28;20062;-40
2022/05/14 04:42:52;;;;;;;3.63;1.80;;;13.70;56.10;;;14.20;47.07;98060.94;5084631;28;20404;-40
2022/05/14 04:45:20;;;;;;;2.28;1.50;;;13.70;55.90;;;14.20;47.08;98055.56;5085025;28;20304;-40
2022/05/14 04:47:48;;;;;;;3.60;2.10;;;13.70;55.90;;;14.20;47.53;98060.94;5086327;28;20050;-41
2022/05/14 04:50:16;;;;;;;2.50;1.80;;;13.80;56.30;;;14.23;47.62;98067.78;5086595;28;20052;-40
2022/05/14 04:52:44;;;;;;;3.00;1.70;;;13.80;56.00;;;14.25;47.18;98071.97;5083812;28;20048;-42
2022/05/14 04:55:13;;;;;;;3.60;1.90;;;13.80;55.70;;;14.27;47.39;98072.63;5087127;28;20048;-41
2022/05/14 04:57:43;;;;;;;2.10;1.50;;;13.90;56.00;;;14.31;47.22;98073.13;5083784;28;20269;-41
2022/05/14 05:00:15;;;;;;;1.50;1.40;;;14.00;55.80;;;14.34;47.46;98081.59;5084818;28;20055;-41
2022/05/14 05:05:32;;;;;;;5.90;2.25;;;14.10;56.40;;;14.40;47.78;98074.72;5088064;28;20054;-40
2022/05/14 05:08:01;;;;;;;5.82;1.80;;;14.00;56.40;;;14.41;47.85;98078.25;5087998;28;20095;-41
2022/05/14 05:10:30;;;;;;;4.70;1.70;;;14.10;56.40;;;14.45;47.58;98080.41;5089268;28;20346;-41
2022/05/14 05:12:58;;;;;;;4.55;1.73;;;14.10;55.80;;;14.51;47.47;98078.88;5088677;28;20056;-42
2022/05/14 05:15:26;;;;;;;4.22;1.95;;;14.20;55.80;;;14.53;47.71;98090.25;5089762;28;20247;-41
2022/05/14 05:17:55;;;;;;;5.20;2.55;;;14.20;56.10;;;14.56;47.58;98082.72;5089148;28;20039;-43
2022/05/14 05:20:23;;;;;;;4.30;2.10;;;14.30;55.80;;;14.61;47.38;98086.72;5088532;28;20277;-43
2022/05/14 05:22:51;;;;;;;5.15;2.33;;;14.30;55.50;;;14.63;47.62;98093.56;5089679;28;20056;-44
2022/05/14 05:25:19;;;;;;;2.83;1.85;;;14.30;55.90;;;14.66;47.96;98093.22;5089898;28;20060;-43
2022/05/14 05:27:47;;;;;;;3.88;1.50;;;14.40;56.20;;;14.70;48.10;98091.03;5089858;28;20051;-43
2022/05/14 05:30:15;;;;;;;5.82;2.13;;;14.40;56.40;;;14.73;48.27;98098.69;5089541;28;20056;-44
2022/05/14 05:32:43;;;;;;;2.90;1.95;;;14.40;56.80;;;14.74;48.17;98092.34;5089794;28;20058;-43
2022/05/14 05:35:11;;;;;;;2.63;1.80;;;14.50;56.70;;;14.78;48.28;98090.97;5090201;28;20052;-45
2022/05/14 05:37:46;;;;;;;3.67;1.92;;;14.50;56.80;;;14.82;48.31;98094.97;5088852;28;20052;-44
2022/05/14 05:40:16;;;;;;;5.07;2.00;;;14.50;57.10;;;14.84;48.45;98095.63;5087919;28;20223;-43
2022/05/14 05:42:45;;;;;;;2.72;1.75;;;14.50;57.20;;;14.83;48.50;98096.63;5088325;28;20050;-44
2022/05/14 05:45:15;;;;;;;2.05;1.60;;;14.50;57.40;;;14.85;48.51;98099.97;5088137;28;20051;-44
2022/05/14 05:47:44;;;;;;;6.22;2.03;;;14.50;57.40;;;14.88;49.00;98102.28;5087383;28;20238;-43
2022/05/14 05:50:12;;;;;;;2.60;2.00;;;14.60;57.90;;;14.92;49.14;98100.09;5089803;28;20229;-43
2022/05/14 05:52:40;;;;;;;3.97;1.88;;;14.70;58.20;;;14.95;49.40;98111.28;5086360;28;20056;-42
2022/05/14 05:57:55;;;;;;;2.35;1.85;;;14.80;58.00;;;15.04;49.30;98104.00;5088636;28;20060;-44
2022/05/14 06:00:28;;;;;;;11.25;4.05;;;14.80;58.00;;;15.07;49.38;98108.22;5089016;28;20063;-44
2022/05/14 06:02:57;;;;;;;3.38;2.20;;;14.80;58.10;;;15.09;49.71;98107.00;5087205;28;20058;-42
2022/05/14 06:05:26;;;;;;;3.78;2.00;;;14.90;58.60;;;15.11;49.59;98101.47;5089003;28;20350;-42
2022/05/14 06:07:54;;;;;;;4.07;1.70;;;14.90;58.50;;;15.12;49.84;98097.75;5088836;28;20354;-43
2022/05/14 06:10:24;;;;;;;3.13;1.90;;;14.90;58.80;;;15.14;49.75;98107.31;5070581;28;20058;-43
2022/05/14 06:12:52;;;;;;;3.72;2.15;;;14.90;58.70;;;15.19;49.94;98105.94;5087088;28;20054;-43
2022/05/14 06:15:20;;;;;;;5.55;1.80;;;14.90;58.90;;;15.23;49.90;98104.56;5071014;28;20040;-43
2022/05/14 06:17:51;;;;;;;8.32;2.10;;;15.00;59.00;;;15.28;50.21;98104.88;5088064;28;20051;-41
2022/05/14 06:20:19;;;;;;;3.63;1.95;;;15.10;59.30;;;15.31;50.59;98108.00;5087667;28;20246;-43
2022/05/14 06:22:47;;;;;;;4.07;2.20;;;15.10;59.80;;;15.36;50.64;98102.94;5088267;28;20055;-42
2022/05/14 06:25:15;;;;;;;3.20;2.22;;;15.20;60.00;;;15.41;50.92;98102.41;5088035;28;20054;-42
2022/05/14 06:27:44;;;;;;;7.85;2.70;;;15.30;60.30;;;15.47;51.01;98108.88;5087664;28;20058;-41
2022/05/14 06:30:12;;;;;;;9.98;3.83;;;15.40;60.70;;;15.52;51.72;98106.50;5087549;28;20055;-42
2022/05/14 06:32:40;;;;;;;18.85;4.85;;;15.40;61.80;;;15.56;52.03;98108.63;5085280;28;20056;-43
2022/05/14 06:35:09;;;;;;;19.48;4.43;;;15.50;62.40;;;15.61;52.18;98112.63;5068728;28;20044;-41
2022/05/14 06:37:38;;;;;;;17.27;4.28;;;15.50;62.50;;;15.66;51.90;98108.38;5088332;28;20058;-41
2022/05/14 06:40:07;;;;;;;9.70;3.22;;;15.60;62.20;;;15.70;52.25;98112.38;5088609;28;20048;-42
2022/05/14 06:42:36;;;;;;;9.70;3.55;;;15.60;62.00;;;15.75;51.97;98115.38;5087635;28;20062;-43
2022/05/14 06:45:07;;;;;;;11.25;3.08;;;15.70;62.10;;;15.81;52.15;98121.84;5068710;28;20388;-42
2022/05/14 06:47:35;;;;;;;6.68;2.83;;;15.70;61.90;;;15.84;52.31;98113.44;5087727;28;20044;-41
2022/05/14 06:50:05;;;;;;;6.25;2.97;;;15.80;62.30;;;15.90;52.21;98118.06;5088664;28;20048;-41
2022/05/14 06:52:34;;;;;;;8.52;3.17;;;15.80;62.50;;;15.94;52.54;98110.50;5087563;28;20342;-41
2022/05/14 06:55:05;;;;;;;5.45;2.90;;;15.90;62.70;;;16.00;52.42;98114.28;5070769;28;20052;-42
2022/05/14 06:57:33;;;;;;;9.00;3.20;;;15.90;62.40;;;16.03;52.23;98114.75;5069422;28;20056;-41
2022/05/14 07:00:03;;;;;;;9.30;3.53;;;15.90;62.00;;;16.09;52.54;98118.53;5086960;28;20334;-41
2022/05/14 07:02:32;;;;;;;5.68;2.50;;;16.10;62.30;;;16.14;52.33;98113.47;5087692;28;20048;-44
2022/05/14 07:07:47;;;;;;;6.53;2.30;;;16.10;61.70;;;16.19;51.91;98118.25;5088005;28;20048;-44
2022/05/14 07:10:15;;;;;;;6.45;2.45;;;16.20;61.10;;;16.23;51.82;98124.94;5087904;28;20240;-42
2022/05/14 07:12:43;;;;;;;5.00;2.33;;;16.20;60.80;;;16.27;52.48;98127.06;5086191;28;20381;-43
2022/05/14 07:15:14;;;;;;;6.20;2.53;;;16.30;61.50;;;16.28;52.78;98123.34;5087237;28;20052;-42
2022/05/14 07:17:42;;;;;;;3.47;1.85;;;16.30;62.60;;;16.28;52.71;98128.72;5086984;28;20058;-42
2022/05/14 07:20:11;;;;;;;4.15;2.72;;;16.20;62.30;;;16.31;52.09;98130.22;5086779;28;20380;-41
2022/05/14 07:22:39;;;;;;;6.22;2.30;;;16.30;61.40;;;16.31;52.46;98135.59;5087925;28;20054;-42
2022/05/14 07:25:08;;;;;;;3.03;1.80;;;16.30;61.90;;;16.34;51.56;98137.91;5069337;28;20254;-42
2022/05/14 07:27:40;;;;;;;4.27;2.53;;;16.30;60.40;;;16.34;51.64;98137.91;5085875;28;20050;-43
2022/05/14 07:30:09;;;;;;;3.90;2.05;;;16.30;60.60;;;16.39;50.29;98137.34;5086068;28;20245;-41
2022/05/14 07:32:37;;;;;;;3.25;1.70;;;16.40;58.50;;;16.44;50.47;98138.47;5086812;28;20044;-42
2022/05/14 07:35:06;;;;;;;3.45;1.90;;;16.40;58.10;;;16.39;51.21;98140.03;5087325;28;20036;-41
2022/05/14 07:37:42;;;;;;;4.07;2.10;;;16.40;59.90;;;16.39;50.61;98140.03;5087089;28;20074;-41
2022/05/14 07:40:20;;;;;;;5.82;2.15;;;16.40;59.00;;;16.40;50.45;98139.00;5051860;28;20056;-41
2022/05/14 07:42:58;;;;;;;3.05;2.05;;;16.30;59.10;;;16.40;49.59;98139.00;5085738;28;20074;-42
2022/05/14 07:45:33;;;;;;;2.70;1.83;;;16.30;57.60;;;16.33;49.73;98134.38;5068637;28;20209;-42
2022/05/14 07:48:06;;;;;;;2.95;1.80;;;16.20;58.10;;;16.32;50.12;98130.03;5086722;28;20060;-42
2022/05/14 07:50:35;;;;;;;3.50;2.40;;;16.20;58.40;;;16.34;49.90;98128.00;5087038;28;20330;-41
2022/05/14 07:53:03;;;;;;;4.43;1.98;;;16.20;57.80;;;16.40;49.76;98131.81;5068210;28;20043;-40
2022/05/14 07:55:33;;;;;;;3.05;2.10;;;16.40;57.40;;;16.43;49.04;98142.16;5085541;28;20052;-41
2022/05/14 07:58:04;;;;;;;3.97;2.05;;;16.40;56.60;;;16.52;48.86;98143.72;5086949;28;20058;-41
2022/05/14 08:00:33;;;;;;;2.92;1.70;;;16.50;56.40;;;16.45;48.62;98141.97;5091981;28;20055;-41
2022/05/14 08:03:02;;;;;;;4.88;2.30;;;16.40;55.80;;;16.42;48.61;98143.19;5095794;28;20039;-41
2022/05/14 08:05:30;;;;;;;3.10;1.88;;;16.50;55.80;;;16.52;48.82;98145.59;5096204;28;20066;-41
2022/05/14 08:07:58;;;;;;;5.47;2.28;;;16.50;56.50;;;16.52;47.92;98130.28;5094174;28;20373;-41
2022/05/14 08:10:27;;;;;;;4.30;2.30;;;16.60;54.70;;;16.63;48.56;98139.72;5096649;28;20243;-41
2022/05/14 08:12:55;;;;;;;4.40;2.17;;;16.70;55.50;;;16.69;47.71;98130.94;5095459;28;20058;-41
2022/05/14 08:15:25;;;;;;;4.88;1.98;;;16.80;54.30;;;16.72;47.73;98130.53;5095336;28;20040;-41
2022/05/14 08:17:54;;;;;;;2.10;1.80;;;16.80;54.10;;;16.76;47.90;98132.84;5095950;28;20051;-41
2022/05/14 08:20:23;;;;;;;3.08;1.50;;;16.90;54.50;;;16.82;48.03;98132.94;5094786;28;20056;-43
2022/05/14 08:25:37;;;;;;;3.42;1.77;;;17.00;54.40;;;16.91;47.31;98133.69;5089531;28;20235;-41
2022/05/14 08:28:05;;;;;;;2.28;1.67;;;17.00;53.80;;;17.00;47.75;98131.69;5096924;28;20372;-41
2022/05/14 08:30:35;;;;;;;1.88;1.67;;;17.10;54.40;;;17.08;47.76;98128.91;5075014;28;20061;-42
2022/05/14 08:33:05;;;;;;;5.25;1.90;;;17.30;54.50;;;17.10;47.28;98124.16;5105351;28;20065;-42
2022/05/14 08:35:34;;;;;;;6.03;1.90;;;17.30;53.60;;;17.15;46.96;98132.47;5108513;28;20054;-42
2022/05/14 08:38:02;;;;;;;5.93;1.77;;;17.40;52.70;;;17.21;46.87;98125.50;5110383;28;20048;-44
2022/05/14 08:40:37;;;;;;;3.15;1.80;;;17.40;53.20;;;17.24;46.88;98120.59;5093852;28;20055;-43
2022/05/14 08:43:14;;;;;;;4.25;1.75;;;17.40;53.20;;;17.31;46.72;98126.88;5110837;28;20054;-44
2022/05/14 08:45:41;;;;;;;5.65;1.73;;;17.50;53.00;;;17.35;46.55;98124.63;5093935;28;20056;-42
2022/05/14 08:48:19;;;;;;;3.55;1.90;;;17.50;52.90;;;17.41;46.54;98118.47;5110015;28;20365;-43
2022/05/14 08:51:08;;;;;;;2.88;1.67;;;17.60;52.20;;;17.48;46.45;98116.66;5110232;28;20046;-42
2022/05/14 08:53:37;;;;;;;2.30;1.85;;;17.70;52.20;;;17.42;45.21;98109.34;5110968;28;20048;-42
2022/05/14 08:56:44;;;;;;;2.97;1.80;;;17.70;50.20;;;17.53;45.92;98118.78;5093117;28;20044;-44
2022/05/14 08:59:45;;;;;;;3.25;1.70;;;17.80;51.30;;;17.60;44.92;98125.06;5094154;28;20043;-43
2022/05/14 09:02:42;;;;;;;3.53;2.33;;;17.80;50.10;;;17.67;45.40;98123.22;5109741;28;20055;-41
2022/05/14 09:05:35;;;;;;;7.60;2.30;;;17.80;50.90;;;17.73;45.40;98121.63;5109920;28;20047;-43
2022/05/14 09:08:03;;;;;;;2.97;1.67;;;17.90;50.80;;;17.70;45.26;98125.53;5110133;28;20052;-42
2022/05/14 09:10:42;;;;;;;3.67;1.95;;;18.00;50.00;;;17.78;45.13;98129.13;5108730;28;20052;-42
2022/05/14 09:13:21;;;;;;;2.78;1.70;;;18.00;50.30;;;17.81;44.24;98120.63;5109921;28;20254;-42
2022/05/14 09:16:02;;;;;;;3.45;1.70;;;18.00;49.50;;;17.83;44.25;98119.41;5109882;28;20203;-43
2022/05/14 09:18:44;;;;;;;2.70;1.65;;;18.10;49.20;;;17.92;44.37;98119.31;5110293;28;20050;-42
2022/05/14 09:21:29;;;;;;;4.20;1.70;;;18.10;49.10;;;17.92;43.75;98128.22;5109784;28;20048;-42
2022/05/14 09:24:27;;;;;;;5.22;1.75;;;18.20;48.40;;;17.98;42.82;98115.81;5108588;28;20103;-43
2022/05/14 09:27:12;;;;;;;4.43;2.20;;;18.20;46.60;;;18.07;43.65;98111.97;5093932;28;20055;-42
2022/05/14 09:29:44;;;;;;;3.25;1.83;;;18.30;47.30;;;18.10;43.19;98112.38;5110292;28;20272;-43
2022/05/14 09:32:20;;;;;;;5.72;1.60;;;18.30;47.30;;;18.14;41.44;98114.69;5091916;28;20049;-45
2022/05/14 09:34:49;;;;;;;4.53;1.52;;;18.30;45.40;;;18.17;41.59;98103.53;5106994;28;20046;-45
2022/05/14 09:37:37;;;;;;;3.63;1.48;;;18.40;45.30;;;18.24;41.95;98102.53;5095200;28;20039;-43
2022/05/14 09:40:29;;;;;;;5.47;2.10;;;18.50;46.50;;;18.32;42.17;98106.06;5109904;28;20058;-43
2022/05/14 09:43:21;;;;;;;2.80;1.70;;;18.60;46.60;;;18.41;42.36;98105.69;5092107;28;20086;-43
2022/05/14 09:46:06;;;;;;;3.75;1.42;;;18.60;45.70;;;18.49;40.98;98108.25;5110147;28;20052;-44
2022/05/14 09:48:42;;;;;;;2.70;1.50;;;18.80;44.80;;;18.54;41.30;98102.25;5109895;28;20211;-43
2022/05/14 09:51:10;;;;;;;4.25;1.45;;;18.80;45.40;;;18.49;40.38;98108.25;5109714;28;20055;-42
2022/05/14 09:53:43;;;;;;;1.88;1.45;;;18.80;42.80;;;18.56;40.94;98100.16;5109283;28;20525;-42
2022/05/14 09:56:35;;;;;;;2.45;1.60;;;18.80;44.60;;;18.56;40.82;98102.88;5109554;28;20053;-42
2022/05/14 09:59:20;;;;;;;2.67;1.45;;;18.80;44.80;;;18.55;40.67;98105.75;5109154;28;20047;-42
2022/05/14 10:02:03;;;;;;;3.58;1.90;;;18.80;44.20;;;18.57;40.21;98107.25;5108117;28;20054;-43
2022/05/14 10:05:04;;;;;;;2.15;1.50;;;18.80;42.80;;;18.62;40.65;98088.56;5091440;28;20049;-43
2022/05/14 10:07:57;;;;;;;2.67;1.60;;;18.90;43.80;;;18.54;38.90;98104.09;5092371;28;20060;-42
2022/05/14 10:11:09;;;;;;;2.17;1.73;;;18.90;42.60;;;18.61;39.76;98096.84;5107559;28;20051;-44
2022/05/14 10:14:15;;;;;;;3.45;1.88;;;18.90;42.90;;;18.68;39.03;98103.13;5108870;28;20062;-43
2022/05/14 10:16:58;;;;;;;2.25;1.33;;;19.10;42.50;;;18.73;39.79;98099.81;5108306;28;20283;-42
2022/05/14 10:20:20;;;;;;;2.95;1.63;;;19.10;43.20;;;18.84;39.87;98094.72;5108412;28;20649;-42
2022/05/14 10:26:47;;;;;;;4.13;1.90;;;19.30;42.80;;;18.95;38.91;98095.97;5109344;28;20047;-44
2022/05/14 10:29:45;;;;;;;3.05;1.48;;;19.30;41.50;;;18.93;38.64;98094.53;5108559;28;20051;-45
2022/05/14 10:32:18;;;;;;;3.58;1.40;;;19.30;42.00;;;18.95;37.73;98087.88;5092884;28;20043;-44
2022/05/14 10:34:59;;;;;;;3.08;1.60;;;19.30;40.00;;;19.06;38.93;98087.28;5090796;28;20059;-45
2022/05/14 10:37:55;;;;;;;2.88;1.73;;;19.30;42.10;;;19.13;38.86;98086.47;5092967;28;20260;-44
2022/05/14 10:40:41;;;;;;;3.20;1.42;;;19.40;42.80;;;19.15;38.46;98085.22;5108836;28;20053;-43
2022/05/14 10:43:45;;;;;;;4.28;2.20;;;19.60;40.90;;;19.29;38.85;98077.97;5089189;28;20090;-43
2022/05/14 10:46:20;;;;;;;5.70;2.22;;;19.70;42.00;;;19.36;38.03;98068.00;5108250;28;20371;-45
2022/05/14 10:49:21;;;;;;;5.70;1.75;;;19.80;40.60;;;19.44;38.67;98065.13;5106923;28;20342;-44
2022/05/14 10:51:53;;;;;;;2.22;1.30;;;19.90;41.60;;;19.56;39.19;98073.41;5108714;28;20056;-43
2022/05/14 10:54:26;;;;;;;3.17;1.70;;;20.00;42.60;;;19.60;37.93;98066.56;5091656;28;20043;-43
2022/05/14 10:57:00;;;;;;;1.98;1.55;;;20.00;39.80;;;19.64;37.98;98066.97;5088839;28;20043;-43
2022/05/14 11:00:16;;;;;;;1.95;1.42;;;19.90;40.50;;;19.70;37.74;98067.97;5106187;28;20063;-44
2022/05/14 11:03:02;;;;;;;4.00;2.85;;;20.00;40.20;;;19.77;37.82;98072.38;5089627;28;20364;-44
2022/05/14 11:06:02;;;;;;;2.47;1.52;;;20.20;39.50;;;19.77;36.53;98068.84;5106449;28;20050;-44
2022/05/14 11:08:44;;;;;;;3.88;2.13;;;20.10;39.30;;;19.83;36.68;98066.16;5108760;28;20372;-43